Time;durP1;ratioP1;P1;durP2;ratioP2;P2;SDS_P1;SDS_P2;PMS_P1;PMS_P2;Temp;Humidity;BMP_temperature;BMP_pressure;BME280_temperature;BME280_humidity;BME280_pressure;Samples;Min_cycle;Max_cycle;Signal;HPM_P1;HPM_P2
2022/07/17 00:01:04;;;;;;;8.75;5.68;;;28.40;99.90;;;;;;4158666;28;20118;-67
2022/07/17 00:03:12;;;;;;;8.20;5.82;;;28.50;99.90;;;;;;4158755;28;20045;-67
2022/07/17 00:05:19;;;;;;;9.93;6.82;;;28.50;99.90;;;;;;4159867;28;20056;-67
2022/07/17 00:07:23;;;;;;;10.00;6.47;;;28.60;99.90;;;;;;4158855;28;20500;-67
2022/07/17 00:09:30;;;;;;;9.25;6.75;;;28.60;99.90;;;;;;4158107;28;20119;-68
2022/07/17 00:11:35;;;;;;;10.50;7.25;;;28.70;99.90;;;;;;4156831;28;20057;-67
2022/07/17 00:13:41;;;;;;;10.73;6.75;;;28.70;99.90;;;;;;4159663;28;20548;-67
2022/07/17 00:15:46;;;;;;;8.75;6.55;;;28.70;99.90;;;;;;4158946;28;20046;-67
2022/07/17 00:17:51;;;;;;;9.70;6.72;;;28.80;99.90;;;;;;4157028;28;20081;-69
2022/07/17 00:19:58;;;;;;;9.23;6.95;;;28.80;99.90;;;;;;4159486;28;20049;-68
2022/07/17 00:22:02;;;;;;;8.60;7.30;;;28.80;99.90;;;;;;4160543;28;20496;-67
2022/07/17 00:24:07;;;;;;;12.60;7.13;;;28.80;99.90;;;;;;4157662;28;20039;-67
2022/07/17 00:26:14;;;;;;;14.55;7.65;;;28.80;99.90;;;;;;4160750;28;20441;-69
2022/07/17 00:28:21;;;;;;;8.88;7.45;;;28.80;99.90;;;;;;4159222;28;20480;-67
2022/07/17 00:30:26;;;;;;;11.90;6.97;;;28.70;99.90;;;;;;4159977;28;20124;-69
2022/07/17 00:32:30;;;;;;;8.98;7.35;;;28.70;99.90;;;;;;4158748;28;20041;-67
2022/07/17 00:34:35;;;;;;;9.57;6.82;;;28.70;99.90;;;;;;4160767;28;20051;-67
2022/07/17 00:36:40;;;;;;;9.93;7.18;;;28.70;99.90;;;;;;4159456;28;20500;-67
2022/07/17 00:38:46;;;;;;;8.75;7.10;;;28.70;99.90;;;;;;4160765;28;20037;-67
2022/07/17 00:40:59;;;;;;;12.60;7.70;;;28.70;99.90;;;;;;4158422;28;20049;-68
2022/07/17 00:43:03;;;;;;;8.65;6.80;;;28.80;99.90;;;;;;4160656;28;20033;-66
2022/07/17 00:45:10;;;;;;;10.48;6.72;;;28.80;99.90;;;;;;4157816;28;20107;-68
2022/07/17 00:47:18;;;;;;;10.68;7.55;;;28.80;99.90;;;;;;4159249;28;20057;-67
2022/07/17 00:49:22;;;;;;;13.25;7.07;;;28.80;99.90;;;;;;4160689;28;20052;-67
2022/07/17 00:51:29;;;;;;;10.52;7.25;;;28.90;99.90;;;;;;4160382;28;21027;-67
2022/07/17 00:53:36;;;;;;;9.73;7.65;;;28.90;99.90;;;;;;4160800;28;20103;-68
2022/07/17 00:55:41;;;;;;;8.85;7.18;;;28.90;99.90;;;;;;4160637;28;20091;-67
2022/07/17 00:57:48;;;;;;;10.20;6.82;;;29.00;99.90;;;;;;4153604;28;20507;-67
2022/07/17 00:59:54;;;;;;;12.73;7.20;;;29.00;99.90;;;;;;4126127;28;20051;-65
2022/07/17 01:02:00;;;;;;;9.45;7.00;;;29.10;99.90;;;;;;4159371;28;20499;-66
2022/07/17 01:04:07;;;;;;;8.18;5.88;;;29.10;99.90;;;;;;4159343;28;20429;-67
2022/07/17 01:06:12;;;;;;;10.75;6.80;;;29.20;99.90;;;;;;4159623;28;20524;-67
2022/07/17 01:08:17;;;;;;;8.18;6.53;;;29.30;99.90;;;;;;4159380;28;20404;-66
2022/07/17 01:10:23;;;;;;;10.13;7.00;;;29.40;99.90;;;;;;4157908;28;20137;-64
2022/07/17 01:12:28;;;;;;;8.70;6.60;;;29.40;99.90;;;;;;4154179;28;20124;-67
2022/07/17 01:14:33;;;;;;;10.50;6.43;;;29.50;99.90;;;;;;4158433;28;20057;-67
2022/07/17 01:16:40;;;;;;;7.80;6.03;;;29.60;99.90;;;;;;4165072;28;20045;-66
2022/07/17 01:18:50;;;;;;;7.85;6.80;;;29.70;99.90;;;;;;4152555;28;20115;-66
2022/07/17 01:20:54;;;;;;;8.75;6.72;;;29.70;99.90;;;;;;4170537;28;20075;-67
2022/07/17 01:23:00;;;;;;;12.52;7.25;;;29.80;99.90;;;;;;4159600;28;20443;-66
2022/07/17 01:25:05;;;;;;;11.38;7.60;;;29.80;99.90;;;;;;4159164;28;20085;-67
2022/07/17 01:27:10;;;;;;;9.68;7.30;;;29.80;99.90;;;;;;4159940;28;20091;-66
2022/07/17 01:29:15;;;;;;;9.93;7.60;;;29.80;99.90;;;;;;4156187;28;20541;-66
2022/07/17 01:31:21;;;;;;;9.45;6.85;;;29.90;99.90;;;;;;4158605;28;20310;-66
2022/07/17 01:33:26;;;;;;;9.63;6.90;;;30.00;99.90;;;;;;4159180;28;20046;-66
2022/07/17 01:35:34;;;;;;;8.52;6.75;;;30.00;99.90;;;;;;4157226;28;20543;-66
2022/07/17 01:37:41;;;;;;;8.65;6.65;;;30.10;99.90;;;;;;4158421;28;20044;-66
2022/07/17 01:39:55;;;;;;;8.40;6.07;;;30.10;99.90;;;;;;4160632;28;20049;-66
2022/07/17 01:42:01;;;;;;;9.43;6.97;;;30.10;99.90;;;;;;4146101;28;20042;-66
2022/07/17 01:44:07;;;;;;;7.90;6.43;;;30.10;99.90;;;;;;4160500;28;20520;-66
2022/07/17 01:46:11;;;;;;;7.50;6.30;;;30.10;99.90;;;;;;4161330;28;20029;-67
2022/07/17 01:48:32;;;;;;;7.60;6.78;;;30.10;99.90;;;;;;4185353;28;20437;-66
2022/07/17 01:50:36;;;;;;;9.57;6.85;;;30.20;99.90;;;;;;4161136;28;20034;-66
2022/07/17 01:52:42;;;;;;;7.57;6.80;;;30.20;99.90;;;;;;4161457;28;20781;-66
2022/07/17 01:54:50;;;;;;;9.68;7.38;;;30.20;99.90;;;;;;4160909;28;20306;-67
2022/07/17 01:56:55;;;;;;;8.52;6.10;;;30.20;99.90;;;;;;4160212;28;20061;-66
2022/07/17 01:58:59;;;;;;;10.38;6.70;;;30.30;99.90;;;;;;4193538;28;20061;-66
2022/07/17 02:01:07;;;;;;;13.80;7.10;;;30.30;99.90;;;;;;4161852;28;20057;-66
2022/07/17 02:03:13;;;;;;;11.05;6.88;;;30.30;99.90;;;;;;4162290;28;20124;-65
2022/07/17 02:05:17;;;;;;;10.35;7.10;;;30.40;99.90;;;;;;4163290;28;20053;-66
2022/07/17 02:07:24;;;;;;;11.30;7.00;;;30.40;99.90;;;;;;4162488;28;20045;-66
2022/07/17 02:09:31;;;;;;;10.40;6.75;;;30.50;99.90;;;;;;4163258;28;20073;-65
2022/07/17 02:11:36;;;;;;;9.05;6.53;;;30.60;99.90;;;;;;4162753;28;20575;-66
2022/07/17 02:13:41;;;;;;;8.60;7.10;;;30.70;99.90;;;;;;4162455;28;20041;-66
2022/07/17 02:15:47;;;;;;;11.88;7.00;;;30.70;99.90;;;;;;4162708;28;20105;-66
2022/07/17 02:17:53;;;;;;;9.80;7.18;;;30.80;99.90;;;;;;4163415;28;20080;-65
2022/07/17 02:19:59;;;;;;;9.43;6.80;;;30.90;99.90;;;;;;4162653;28;20080;-66
2022/07/17 02:22:06;;;;;;;11.00;6.55;;;30.90;99.90;;;;;;4162786;28;20052;-66
2022/07/17 02:24:11;;;;;;;8.32;6.18;;;30.90;99.90;;;;;;4162219;28;20481;-65
2022/07/17 02:26:18;;;;;;;10.73;7.43;;;31.00;99.90;;;;;;4156202;28;20069;-66
2022/07/17 02:28:24;;;;;;;8.93;6.78;;;31.10;99.90;;;;;;4160290;28;20034;-66
2022/07/17 02:30:29;;;;;;;10.73;6.43;;;31.10;99.90;;;;;;4162275;28;20052;-66
2022/07/17 02:32:34;;;;;;;8.52;6.47;;;31.20;99.90;;;;;;4155289;28;20514;-65
2022/07/17 02:34:38;;;;;;;8.50;6.50;;;31.30;99.90;;;;;;4160443;28;20597;-67
2022/07/17 02:36:44;;;;;;;8.55;6.15;;;31.40;99.90;;;;;;4162364;28;20132;-67
2022/07/17 02:38:49;;;;;;;10.40;6.68;;;31.40;99.90;;;;;;4162976;28;20043;-65
2022/07/17 02:40:55;;;;;;;9.88;6.60;;;31.50;99.90;;;;;;4160178;28;20056;-65
2022/07/17 02:43:00;;;;;;;7.70;6.05;;;31.50;99.90;;;;;;4158578;28;20407;-65
2022/07/17 02:45:06;;;;;;;13.07;7.07;;;31.50;99.90;;;;;;4160645;28;20131;-65
2022/07/17 02:47:11;;;;;;;9.25;6.07;;;31.60;99.90;;;;;;4159977;28;20038;-64
2022/07/17 02:49:17;;;;;;;11.45;6.63;;;31.60;99.90;;;;;;4158686;28;20064;-64
2022/07/17 02:51:23;;;;;;;11.25;6.03;;;31.70;99.90;;;;;;4161193;28;20045;-65
2022/07/17 02:53:32;;;;;;;9.82;6.43;;;31.70;99.90;;;;;;4160825;28;20041;-65
2022/07/17 02:55:37;;;;;;;10.32;6.60;;;31.80;99.90;;;;;;4160764;28;20132;-65
2022/07/17 02:57:46;;;;;;;10.10;6.22;;;31.90;99.90;;;;;;4160197;28;20280;-65
2022/07/17 02:59:52;;;;;;;9.80;5.80;;;31.90;99.90;;;;;;4142123;28;20136;-64
2022/07/17 03:01:57;;;;;;;9.13;6.28;;;32.00;99.90;;;;;;4161455;28;20128;-64
2022/07/17 03:04:02;;;;;;;12.07;6.55;;;32.00;99.90;;;;;;4159595;28;20140;-65
2022/07/17 03:06:08;;;;;;;9.13;6.13;;;32.00;99.90;;;;;;4159364;28;20470;-66
2022/07/17 03:08:13;;;;;;;11.25;5.93;;;32.00;99.90;;;;;;4159872;28;20047;-66
2022/07/17 03:10:17;;;;;;;9.45;6.05;;;32.00;99.90;;;;;;4160777;28;20046;-66
2022/07/17 03:12:24;;;;;;;7.57;5.35;;;32.10;99.90;;;;;;4161157;28;20580;-65
2022/07/17 03:14:28;;;;;;;7.53;5.55;;;32.10;99.90;;;;;;4157326;28;20075;-65
2022/07/17 03:16:35;;;;;;;9.05;6.10;;;32.00;99.90;;;;;;4158104;28;20190;-64
2022/07/17 03:18:40;;;;;;;12.20;5.57;;;31.90;99.90;;;;;;4159119;28;20148;-64
2022/07/17 03:20:44;;;;;;;8.02;5.70;;;31.80;99.90;;;;;;4157552;28;20057;-65
2022/07/17 03:22:49;;;;;;;7.53;5.00;;;31.70;99.90;;;;;;4158656;28;20041;-65
2022/07/17 03:24:59;;;;;;;8.82;5.50;;;31.90;99.90;;;;;;4158325;28;20132;-64
2022/07/17 03:27:04;;;;;;;8.15;5.40;;;32.10;99.90;;;;;;4159517;28;20103;-64
2022/07/17 03:29:08;;;;;;;8.85;5.85;;;32.30;99.90;;;;;;4157161;28;20084;-64
2022/07/17 03:31:17;;;;;;;9.40;5.38;;;32.50;99.90;;;;;;4159215;28;20096;-65
2022/07/17 03:33:22;;;;;;;8.10;5.38;;;32.60;99.90;;;;;;4157937;28;20123;-67
2022/07/17 03:35:27;;;;;;;7.82;5.53;;;32.60;99.90;;;;;;4159977;28;20069;-63
2022/07/17 03:37:33;;;;;;;8.10;5.53;;;32.80;99.90;;;;;;4154576;28;20512;-66
2022/07/17 03:39:40;;;;;;;8.55;5.50;;;32.80;99.90;;;;;;4154811;28;20041;-67
2022/07/17 03:41:45;;;;;;;7.70;5.10;;;32.80;99.90;;;;;;4159805;28;20761;-65
2022/07/17 03:43:53;;;;;;;7.28;5.15;;;32.90;99.90;;;;;;4158383;28;20061;-65
2022/07/17 03:45:57;;;;;;;13.00;6.00;;;33.10;99.90;;;;;;4158573;28;20038;-65
2022/07/17 03:48:02;;;;;;;8.68;5.30;;;33.20;99.90;;;;;;4159208;28;20095;-65
2022/07/17 03:50:10;;;;;;;7.43;5.28;;;33.20;99.90;;;;;;4124115;28;20173;-64
2022/07/17 03:52:15;;;;;;;7.35;5.35;;;33.00;99.90;;;;;;4159304;28;20041;-64
2022/07/17 03:54:21;;;;;;;8.63;5.20;;;33.10;99.90;;;;;;4157504;28;20041;-64
2022/07/17 03:56:29;;;;;;;7.72;5.10;;;33.30;99.90;;;;;;4120694;28;20566;-65
2022/07/17 03:58:34;;;;;;;9.23;5.80;;;33.40;99.90;;;;;;4157933;28;20045;-65
2022/07/17 04:00:39;;;;;;;8.90;5.32;;;33.40;99.90;;;;;;4157223;28;20072;-65
2022/07/17 04:02:45;;;;;;;9.75;5.63;;;33.40;99.90;;;;;;4158984;28;20700;-65
2022/07/17 04:04:50;;;;;;;7.95;5.00;;;33.60;99.90;;;;;;4157425;28;20132;-65
2022/07/17 04:06:55;;;;;;;7.10;5.22;;;33.60;99.90;;;;;;4159430;28;20072;-65
2022/07/17 04:09:01;;;;;;;8.90;4.82;;;33.60;99.90;;;;;;4157895;28;20099;-66
2022/07/17 04:11:06;;;;;;;5.80;4.47;;;33.70;99.90;;;;;;4158980;28;20049;-65
2022/07/17 04:13:13;;;;;;;7.53;5.00;;;33.70;99.90;;;;;;4157522;28;20060;-64
2022/07/17 04:17:38;;;;;;;10.02;5.00;;;33.80;99.90;;;;;;4157525;28;20052;-65
2022/07/17 04:19:43;;;;;;;8.07;4.63;;;33.80;99.90;;;;;;4158389;28;20467;-65
2022/07/17 04:21:50;;;;;;;6.55;4.90;;;34.00;99.90;;;;;;4158883;28;20124;-65
2022/07/17 04:23:55;;;;;;;8.18;4.72;;;33.70;99.90;;;;;;4158147;28;20041;-65
2022/07/17 04:26:00;;;;;;;6.72;4.90;;;33.50;99.30;;;;;;4154528;28;20041;-65
2022/07/17 04:28:13;;;;;;;7.30;4.95;;;33.10;99.20;;;;;;4157953;28;20041;-65
2022/07/17 04:30:19;;;;;;;9.73;4.97;;;32.90;99.90;;;;;;4159383;28;20073;-65
2022/07/17 04:32:24;;;;;;;7.30;4.70;;;32.90;99.90;;;;;;4159139;28;20128;-65
2022/07/17 04:34:32;;;;;;;7.53;5.00;;;33.00;99.90;;;;;;4157122;28;20133;-65
2022/07/17 04:36:37;;;;;;;8.38;5.10;;;33.10;99.90;;;;;;4157839;28;20045;-66
2022/07/17 04:38:41;;;;;;;10.43;6.22;;;33.10;99.30;;;;;;4158223;28;20050;-65
2022/07/17 04:40:48;;;;;;;10.10;6.07;;;33.20;99.50;;;;;;4149234;28;20073;-64
2022/07/17 04:42:52;;;;;;;8.90;6.25;;;33.30;99.60;;;;;;4158207;28;20056;-65
2022/07/17 04:44:57;;;;;;;8.68;5.80;;;33.40;99.50;;;;;;4157839;28;20041;-65
2022/07/17 04:47:06;;;;;;;6.00;4.90;;;33.50;99.90;;;;;;4157725;28;20464;-66
2022/07/17 04:49:10;;;;;;;9.15;4.85;;;33.60;99.90;;;;;;4158845;28;20631;-65
2022/07/17 04:51:15;;;;;;;8.00;4.90;;;33.70;99.80;;;;;;4158448;28;20077;-67
2022/07/17 04:53:22;;;;;;;8.65;5.10;;;33.90;99.20;;;;;;4159245;28;20566;-67
2022/07/17 04:55:28;;;;;;;10.32;5.28;;;33.90;98.80;;;;;;4157208;28;20049;-66
2022/07/17 04:57:33;;;;;;;7.82;5.40;;;33.70;98.50;;;;;;4155870;28;20053;-66
2022/07/17 04:59:39;;;;;;;6.57;4.95;;;33.70;98.60;;;;;;4156636;28;20065;-66
2022/07/17 05:01:43;;;;;;;8.32;5.43;;;33.70;99.00;;;;;;4157533;28;20047;-66
2022/07/17 05:03:49;;;;;;;7.13;4.68;;;33.70;99.30;;;;;;4158311;28;20069;-65
2022/07/17 05:05:54;;;;;;;8.23;5.00;;;33.60;98.90;;;;;;4158249;28;20538;-66
2022/07/17 05:07:58;;;;;;;6.55;5.03;;;33.60;99.40;;;;;;4158964;28;20045;-66
2022/07/17 05:10:04;;;;;;;8.95;4.80;;;33.60;99.40;;;;;;4158527;28;20041;-66
2022/07/17 05:12:10;;;;;;;9.90;5.30;;;33.90;99.20;;;;;;4153839;28;20124;-65
2022/07/17 05:14:14;;;;;;;8.18;4.72;;;34.00;99.10;;;;;;4156795;28;20119;-64
2022/07/17 05:16:19;;;;;;;10.18;5.10;;;34.30;98.70;;;;;;4155364;28;20554;-65
2022/07/17 05:18:23;;;;;;;8.55;4.55;;;34.50;98.50;;;;;;4158550;28;20108;-63
2022/07/17 05:20:28;;;;;;;6.28;4.75;;;34.50;98.00;;;;;;4157550;28;20037;-63
2022/07/17 05:22:33;;;;;;;6.50;5.00;;;34.40;98.50;;;;;;4159339;28;20054;-63
2022/07/17 05:24:37;;;;;;;8.98;4.80;;;34.30;98.50;;;;;;4158194;28;20406;-63
2022/07/17 05:26:42;;;;;;;7.78;5.15;;;34.50;98.30;;;;;;4157736;28;20131;-62
2022/07/17 05:28:47;;;;;;;8.57;4.80;;;34.70;98.10;;;;;;4156650;28;20037;-62
2022/07/17 05:30:53;;;;;;;7.72;5.00;;;34.70;98.10;;;;;;4158644;28;20527;-62
2022/07/17 05:32:58;;;;;;;10.88;5.07;;;34.70;98.30;;;;;;4159424;28;20049;-61
2022/07/17 05:35:03;;;;;;;6.00;4.38;;;34.60;98.30;;;;;;4157106;28;20049;-61
2022/07/17 05:37:08;;;;;;;7.78;5.18;;;34.50;98.50;;;;;;4159713;28;20037;-61
2022/07/17 05:39:13;;;;;;;8.73;4.90;;;34.60;98.70;;;;;;4159271;28;20156;-62
2022/07/17 05:41:18;;;;;;;7.00;5.03;;;34.70;98.60;;;;;;4157162;28;20041;-61
2022/07/17 05:43:26;;;;;;;5.80;4.63;;;34.50;98.70;;;;;;4157587;28;20482;-61
2022/07/17 05:45:31;;;;;;;9.30;4.95;;;34.40;98.60;;;;;;4158941;28;20072;-62
2022/07/17 05:47:35;;;;;;;8.13;4.68;;;34.40;98.60;;;;;;4167835;28;20057;-62
2022/07/17 05:49:42;;;;;;;9.90;4.90;;;34.40;98.50;;;;;;4159371;28;20048;-62
2022/07/17 05:51:47;;;;;;;7.32;5.13;;;34.40;98.40;;;;;;4156460;28;20064;-62
2022/07/17 05:53:52;;;;;;;7.20;4.70;;;34.50;98.30;;;;;;4159680;28;20049;-62
2022/07/17 05:55:57;;;;;;;12.27;5.15;;;34.40;98.30;;;;;;4157881;28;20042;-62
2022/07/17 05:58:02;;;;;;;8.50;5.03;;;34.40;98.30;;;;;;4159013;28;20148;-62
2022/07/17 06:00:09;;;;;;;5.68;4.65;;;34.60;97.90;;;;;;4157604;28;20049;-62
2022/07/17 06:02:17;;;;;;;6.70;4.45;;;34.70;97.90;;;;;;4157862;28;20356;-62
2022/07/17 06:04:22;;;;;;;8.07;4.72;;;34.70;97.90;;;;;;4158686;28;20887;-62
2022/07/17 06:06:26;;;;;;;7.75;4.72;;;34.90;97.70;;;;;;4157624;28;20044;-63
2022/07/17 06:08:31;;;;;;;6.90;4.43;;;35.00;97.10;;;;;;4158802;28;20319;-62
2022/07/17 06:10:38;;;;;;;8.77;4.43;;;35.00;96.80;;;;;;4157215;28;20107;-62
2022/07/17 06:12:43;;;;;;;8.82;4.88;;;35.00;96.80;;;;;;4158593;28;21635;-62
2022/07/17 06:14:48;;;;;;;5.70;4.07;;;35.00;96.80;;;;;;4156780;28;20120;-62
2022/07/17 06:16:53;;;;;;;7.57;4.50;;;35.10;96.80;;;;;;4157741;28;20073;-62
2022/07/17 06:19:01;;;;;;;8.73;4.70;;;35.20;96.80;;;;;;4158262;28;20436;-63
2022/07/17 06:21:06;;;;;;;7.15;4.85;;;35.60;96.30;;;;;;4155513;28;20052;-62
2022/07/17 06:23:11;;;;;;;5.68;4.25;;;35.80;96.10;;;;;;4159013;28;20599;-63
2022/07/17 06:25:17;;;;;;;6.65;4.10;;;36.00;95.70;;;;;;4159005;28;20051;-63
2022/07/17 06:27:24;;;;;;;7.80;4.65;;;36.10;95.60;;;;;;4160132;28;20235;-63
2022/07/17 06:29:30;;;;;;;7.30;4.22;;;36.00;95.20;;;;;;4160900;28;20033;-63
2022/07/17 06:31:36;;;;;;;6.93;4.50;;;35.90;95.70;;;;;;4160905;28;20072;-63
2022/07/17 06:33:41;;;;;;;6.07;4.45;;;35.70;95.80;;;;;;4161423;28;20053;-62
2022/07/17 06:35:46;;;;;;;8.30;4.88;;;35.40;95.90;;;;;;4159357;28;20052;-62
2022/07/17 06:37:52;;;;;;;7.30;4.50;;;35.10;96.10;;;;;;4161471;28;20488;-61
2022/07/17 06:39:59;;;;;;;6.18;4.43;;;34.70;96.40;;;;;;4161284;28;20056;-62
2022/07/17 06:42:04;;;;;;;8.18;4.40;;;34.50;96.70;;;;;;4159987;28;20046;-62
2022/07/17 06:44:09;;;;;;;8.07;3.85;;;34.50;96.80;;;;;;4159164;28;20042;-62
2022/07/17 06:46:15;;;;;;;5.55;4.00;;;34.70;96.80;;;;;;4120866;28;20092;-62
2022/07/17 06:48:21;;;;;;;5.68;4.22;;;34.70;96.20;;;;;;4160516;28;20045;-62
2022/07/17 06:50:27;;;;;;;5.22;4.43;;;34.80;95.90;;;;;;4160692;28;20038;-62
2022/07/17 06:52:32;;;;;;;5.65;4.18;;;35.00;96.00;;;;;;4158522;28;20041;-62
2022/07/17 06:54:36;;;;;;;7.25;4.43;;;35.30;95.60;;;;;;4158023;28;20045;-63
2022/07/17 06:56:44;;;;;;;6.28;4.18;;;35.20;95.40;;;;;;4158852;28;20049;-63
2022/07/17 06:58:50;;;;;;;8.25;4.40;;;35.10;95.90;;;;;;4155514;28;20097;-62
2022/07/17 07:00:55;;;;;;;7.95;4.63;;;35.00;96.10;;;;;;4158052;28;20515;-62
2022/07/17 07:03:01;;;;;;;7.57;4.28;;;34.80;96.30;;;;;;4160706;28;20037;-62
2022/07/17 07:05:08;;;;;;;6.00;4.35;;;34.70;96.70;;;;;;4159764;28;20037;-62
2022/07/17 07:07:13;;;;;;;7.88;4.47;;;34.70;96.40;;;;;;4161184;28;20047;-61
2022/07/17 07:09:18;;;;;;;5.63;4.40;;;34.60;96.20;;;;;;4159599;28;20052;-62
2022/07/17 07:11:22;;;;;;;6.35;4.65;;;34.70;96.30;;;;;;4158305;28;20037;-62
2022/07/17 07:13:28;;;;;;;5.97;4.35;;;35.00;96.00;;;;;;4159947;28;20045;-62
2022/07/17 07:15:34;;;;;;;6.88;4.40;;;34.80;96.00;;;;;;4159660;28;20158;-62
2022/07/17 07:17:41;;;;;;;7.78;4.30;;;34.70;96.10;;;;;;4160081;28;20087;-62
2022/07/17 07:19:48;;;;;;;6.53;4.47;;;34.90;95.80;;;;;;4159964;28;20038;-62
2022/07/17 07:21:52;;;;;;;6.30;4.18;;;34.90;95.60;;;;;;4159846;28;20487;-62
2022/07/17 07:23:58;;;;;;;6.63;3.95;;;35.10;95.70;;;;;;4159867;28;20046;-62
2022/07/17 07:26:02;;;;;;;7.00;4.10;;;35.40;95.30;;;;;;4158779;28;20053;-62
2022/07/17 07:28:09;;;;;;;6.35;4.00;;;35.70;95.00;;;;;;4160301;28;20553;-61
2022/07/17 07:30:15;;;;;;;4.78;4.28;;;35.90;94.80;;;;;;4159432;28;20136;-62
2022/07/17 07:32:20;;;;;;;6.93;4.30;;;35.60;94.30;;;;;;4157618;28;20484;-62
2022/07/17 07:34:24;;;;;;;8.30;4.22;;;35.40;95.00;;;;;;4159278;28;20363;-62
2022/07/17 07:36:31;;;;;;;6.63;4.20;;;35.30;95.00;;;;;;4159221;28;20535;-63
2022/07/17 07:38:35;;;;;;;5.30;3.97;;;35.10;95.20;;;;;;4160528;28;20041;-61
2022/07/17 07:40:44;;;;;;;4.82;4.13;;;34.90;95.50;;;;;;4159181;28;20531;-61
2022/07/17 07:42:50;;;;;;;6.97;4.65;;;34.70;96.10;;;;;;4161181;28;20128;-62
2022/07/17 07:44:55;;;;;;;6.68;4.13;;;34.50;96.40;;;;;;4161030;28;20041;-62
2022/07/17 07:46:59;;;;;;;6.78;4.18;;;34.40;96.50;;;;;;4161009;28;20049;-62
2022/07/17 07:49:04;;;;;;;5.65;4.13;;;34.30;96.30;;;;;;4161080;28;20132;-62
2022/07/17 07:51:08;;;;;;;7.47;4.60;;;34.40;96.40;;;;;;4161061;28;20045;-62
2022/07/17 07:53:14;;;;;;;6.18;4.20;;;34.40;96.20;;;;;;4158981;28;20064;-62
2022/07/17 07:55:18;;;;;;;6.18;4.50;;;34.30;96.10;;;;;;4161340;28;20041;-62
2022/07/17 07:57:23;;;;;;;5.25;4.38;;;34.20;96.50;;;;;;4160986;28;20072;-61
2022/07/17 07:59:32;;;;;;;5.15;4.22;;;34.00;96.70;;;;;;4161044;28;20078;-61
2022/07/17 08:01:37;;;;;;;6.70;4.70;;;33.90;97.00;;;;;;4159369;28;20047;-62
2022/07/17 08:03:41;;;;;;;6.93;4.55;;;33.90;97.70;;;;;;4160727;28;20049;-61
2022/07/17 08:05:48;;;;;;;6.47;5.30;;;34.00;97.60;;;;;;4161114;28;20045;-61
2022/07/17 08:07:54;;;;;;;6.78;4.70;;;34.00;98.20;;;;;;4126415;28;20081;-61
2022/07/17 08:09:59;;;;;;;7.15;5.05;;;33.90;98.20;;;;;;4159106;28;20807;-61
2022/07/17 08:12:04;;;;;;;9.00;4.53;;;34.10;97.90;;;;;;4160032;28;20087;-61
2022/07/17 08:14:28;;;;;;;7.50;4.75;;;34.20;97.70;;;;;;4161564;28;20051;-61
2022/07/17 08:16:33;;;;;;;5.25;4.55;;;34.20;97.50;;;;;;4161302;28;20060;-61
2022/07/17 08:18:40;;;;;;;4.80;4.22;;;34.00;98.10;;;;;;4160397;28;20478;-61
2022/07/17 08:20:58;;;;;;;5.60;4.20;;;33.80;98.20;;;;;;4160360;28;20132;-61
2022/07/17 08:23:03;;;;;;;6.63;4.22;;;33.60;97.90;;;;;;4162150;28;20566;-62
2022/07/17 08:25:09;;;;;;;4.47;3.65;;;33.50;97.80;;;;;;4161590;28;20053;-61
2022/07/17 08:27:14;;;;;;;5.63;3.33;;;33.40;97.70;;;;;;4162154;28;20080;-62
2022/07/17 08:29:19;;;;;;;5.88;3.40;;;33.30;97.40;;;;;;4160478;28;20038;-61
2022/07/17 08:31:45;;;;;;;5.90;3.80;;;33.20;97.60;;;;;;4144401;28;20448;-61
2022/07/17 08:33:57;;;;;;;34.67;20.35;;;33.00;97.50;;;;;;4125739;28;20054;-61
2022/07/17 08:36:02;;;;;;;25.95;17.25;;;33.10;97.40;;;;;;4144259;28;20054;-61
2022/07/17 08:38:06;;;;;;;24.52;15.73;;;33.00;97.50;;;;;;4144111;28;20074;-61
2022/07/17 08:40:25;;;;;;;29.85;18.30;;;33.10;97.50;;;;;;4120812;28;20404;-61
2022/07/17 08:42:31;;;;;;;26.38;16.80;;;33.10;97.90;;;;;;4159394;28;20162;-61
2022/07/17 08:44:45;;;;;;;29.17;18.98;;;33.10;98.40;;;;;;4158027;28;20049;-61
2022/07/17 08:46:52;;;;;;;16.90;11.00;;;33.30;98.80;;;;;;4159541;28;20053;-61
2022/07/17 08:48:59;;;;;;;8.13;5.32;;;33.30;99.30;;;;;;4157244;28;20777;-61
2022/07/17 08:51:07;;;;;;;8.57;5.00;;;33.20;99.30;;;;;;4158772;28;20041;-61
2022/07/17 08:53:16;;;;;;;8.00;5.93;;;33.10;99.20;;;;;;4158667;28;20428;-61
2022/07/17 08:55:20;;;;;;;12.85;9.13;;;33.10;99.80;;;;;;4159002;28;20080;-61
2022/07/17 08:57:25;;;;;;;12.48;8.40;;;33.10;99.50;;;;;;4159691;28;20508;-61
2022/07/17 08:59:31;;;;;;;11.45;7.20;;;33.10;99.90;;;;;;4158764;28;20452;-62
2022/07/17 09:01:35;;;;;;;12.02;6.30;;;32.90;99.90;;;;;;4159402;28;20049;-61
2022/07/17 09:03:42;;;;;;;7.32;4.72;;;33.00;99.90;;;;;;4157777;28;20045;-62
2022/07/17 09:05:55;;;;;;;5.72;4.68;;;33.20;99.50;;;;;;4155911;28;20480;-62
2022/07/17 09:07:59;;;;;;;7.03;4.35;;;33.30;98.70;;;;;;4159627;28;20136;-61
2022/07/17 09:10:06;;;;;;;5.80;3.95;;;33.50;98.50;;;;;;4157672;28;20411;-61
2022/07/17 09:12:12;;;;;;;5.55;3.67;;;33.30;98.40;;;;;;4157190;28;20053;-61
2022/07/17 09:14:17;;;;;;;6.15;3.60;;;33.40;98.50;;;;;;4157105;28;20132;-61
2022/07/17 09:16:24;;;;;;;4.20;3.33;;;33.60;98.60;;;;;;4158179;28;20172;-62
2022/07/17 09:18:31;;;;;;;4.50;3.17;;;33.90;98.10;;;;;;4158311;28;20388;-62
2022/07/17 09:20:44;;;;;;;4.30;3.05;;;34.10;97.90;;;;;;4155942;28;20041;-62
2022/07/17 09:23:03;;;;;;;4.40;2.50;;;34.10;97.90;;;;;;4158891;28;20459;-62
2022/07/17 09:25:08;;;;;;;4.00;2.90;;;33.90;98.40;;;;;;4154629;28;20038;-62
2022/07/17 09:27:14;;;;;;;4.45;2.75;;;33.80;98.20;;;;;;4156025;28;20091;-62
2022/07/17 09:29:18;;;;;;;5.18;2.55;;;33.80;97.90;;;;;;4157461;28;20325;-62
2022/07/17 09:31:30;;;;;;;3.92;2.78;;;33.80;98.20;;;;;;4157940;28;20098;-62
2022/07/17 09:33:35;;;;;;;4.68;2.60;;;33.80;98.40;;;;;;4156698;28;20615;-61
2022/07/17 09:36:05;;;;;;;4.77;2.93;;;33.70;98.10;;;;;;4155258;28;20578;-61
2022/07/17 09:38:10;;;;;;;;;;;33.80;98.20;;;;;;4156577;28;20061;-62
2022/07/17 09:42:34;;;;;;;6.43;2.47;;;34.10;97.70;;;;;;4158045;28;20041;-61
2022/07/17 09:44:40;;;;;;;4.28;2.22;;;34.10;97.20;;;;;;4157532;28;20053;-62
2022/07/17 09:46:46;;;;;;;5.75;2.15;;;34.20;96.80;;;;;;4155035;28;20044;-62
2022/07/17 09:48:57;;;;;;;3.30;2.10;;;34.20;96.40;;;;;;4157976;28;20052;-61
2022/07/17 09:51:03;;;;;;;2.38;2.00;;;34.30;96.70;;;;;;4156149;28;20041;-61
2022/07/17 09:53:11;;;;;;;4.30;2.75;;;34.40;96.60;;;;;;4159235;28;20505;-61
2022/07/17 09:55:18;;;;;;;6.10;2.72;;;34.50;96.60;;;;;;4158945;28;20041;-61
2022/07/17 09:57:43;;;;;;;5.97;3.88;;;34.60;96.80;;;;;;4158549;28;20033;-61
2022/07/17 09:59:47;;;;;;;6.18;3.13;;;34.50;96.40;;;;;;4159243;28;20045;-61
2022/07/17 10:01:53;;;;;;;6.95;3.97;;;34.50;96.20;;;;;;4161746;28;20068;-61
2022/07/17 10:03:58;;;;;;;7.72;3.75;;;34.60;96.20;;;;;;4162970;28;20073;-61
2022/07/17 10:06:02;;;;;;;8.73;6.97;;;34.60;96.60;;;;;;4162912;28;20069;-61
2022/07/17 10:08:07;;;;;;;7.47;5.20;;;34.50;96.70;;;;;;4163552;28;20219;-61
2022/07/17 10:10:13;;;;;;;4.43;3.10;;;34.50;96.40;;;;;;4163722;28;20041;-61
2022/07/17 10:12:17;;;;;;;4.32;2.95;;;34.60;96.10;;;;;;4163278;28;20715;-62
2022/07/17 10:14:22;;;;;;;4.88;2.55;;;34.60;96.00;;;;;;4163101;28;20058;-61
2022/07/17 10:16:28;;;;;;;3.33;2.10;;;34.50;95.80;;;;;;4163614;28;20045;-62
2022/07/17 10:18:54;;;;;;;4.85;2.60;;;34.60;95.10;;;;;;4163278;28;20424;-62
2022/07/17 10:21:13;;;;;;;3.33;2.53;;;34.40;95.10;;;;;;4163388;28;20049;-62
2022/07/17 10:23:21;;;;;;;4.35;2.33;;;34.40;94.90;;;;;;4143400;28;20050;-62
2022/07/17 10:25:26;;;;;;;4.05;2.50;;;34.40;94.90;;;;;;4158418;28;20045;-62
2022/07/17 10:27:31;;;;;;;3.70;2.38;;;34.40;95.10;;;;;;4161061;28;20038;-62
2022/07/17 10:29:37;;;;;;;3.03;2.05;;;34.40;94.90;;;;;;4161324;28;20037;-62
2022/07/17 10:31:51;;;;;;;4.60;2.38;;;34.40;94.90;;;;;;4162397;28;20042;-62
2022/07/17 10:34:15;;;;;;;3.22;1.88;;;34.30;94.90;;;;;;4161185;28;20037;-62
2022/07/17 10:36:20;;;;;;;3.45;2.22;;;34.40;95.00;;;;;;4161519;28;20076;-64
2022/07/17 10:38:25;;;;;;;3.10;1.58;;;34.30;94.90;;;;;;4161444;28;20056;-64
2022/07/17 10:40:32;;;;;;;3.95;1.80;;;34.30;94.80;;;;;;4161478;28;20067;-63
2022/07/17 10:43:01;;;;;;;3.22;1.60;;;34.20;94.60;;;;;;4159816;28;20049;-64
2022/07/17 10:45:14;;;;;;;3.20;1.65;;;34.10;95.00;;;;;;4161779;28;20051;-63
2022/07/17 10:47:21;;;;;;;2.80;1.92;;;34.10;95.30;;;;;;4161209;28;20095;-63
2022/07/17 10:49:29;;;;;;;4.70;2.25;;;34.00;95.70;;;;;;4144222;28;20053;-62
2022/07/17 10:51:36;;;;;;;2.30;1.77;;;34.00;95.90;;;;;;4162248;28;20050;-62
2022/07/17 10:53:42;;;;;;;3.08;2.00;;;33.70;96.20;;;;;;4161239;28;20041;-62
2022/07/17 10:56:12;;;;;;;6.82;2.35;;;33.60;96.50;;;;;;4162758;28;20095;-62
2022/07/17 10:58:22;;;;;;;2.90;1.80;;;33.60;96.70;;;;;;4162482;28;20056;-62
2022/07/17 11:00:29;;;;;;;3.95;2.10;;;33.50;96.70;;;;;;4161499;28;20049;-62
2022/07/17 11:02:35;;;;;;;5.07;1.90;;;33.40;96.80;;;;;;4162050;28;20042;-61